Time;durP1;ratioP1;P1;durP2;ratioP2;P2;SDS_P1;SDS_P2;PMS_P1;PMS_P2;Temp;Humidity;BMP_temperature;BMP_pressure;BME280_temperature;BME280_humidity;BME280_pressure;Samples;Min_cycle;Max_cycle;Signal;HPM_P1;HPM_P2
2022/08/28 00:00:09;;;;;;;20.73;13.30;;;20.50;92.50;;;;;;5039437;28;21119;-53
2022/08/28 00:02:36;;;;;;;18.63;13.43;;;20.50;92.70;;;;;;5038908;28;20482;-53
2022/08/28 00:05:05;;;;;;;17.43;13.90;;;20.50;92.90;;;;;;5037927;28;20470;-53
2022/08/28 00:07:32;;;;;;;19.57;13.13;;;20.30;93.20;;;;;;5039421;28;20487;-53
2022/08/28 00:09:58;;;;;;;20.20;12.47;;;20.30;93.20;;;;;;5037134;28;20479;-53
2022/08/28 00:12:25;;;;;;;17.47;13.60;;;20.30;93.50;;;;;;5028312;28;20492;-53
2022/08/28 00:14:52;;;;;;;14.67;12.33;;;20.20;93.60;;;;;;5033790;28;20578;-53
2022/08/28 00:17:19;;;;;;;19.80;13.77;;;20.20;93.70;;;;;;5039168;28;21122;-52
2022/08/28 00:19:45;;;;;;;15.87;13.17;;;20.20;93.70;;;;;;5036093;28;20537;-52
2022/08/28 00:22:13;;;;;;;18.27;13.20;;;20.20;93.90;;;;;;5020236;28;20484;-52
2022/08/28 00:24:41;;;;;;;18.67;12.70;;;;;;;;;;5029150;28;20482;-52
2022/08/28 00:29:52;;;;;;;22.20;14.87;;;20.00;94.30;;;;;;5037525;28;20474;-52
2022/08/28 00:32:21;;;;;;;16.67;13.97;;;20.00;94.40;;;;;;5040143;28;20478;-52
2022/08/28 00:34:47;;;;;;;19.63;14.10;;;20.00;94.40;;;;;;5035902;28;20837;-52
2022/08/28 00:37:16;;;;;;;18.30;13.10;;;20.10;94.50;;;;;;5038878;28;21018;-52
2022/08/28 00:39:42;;;;;;;18.77;14.00;;;20.10;94.30;;;;;;5038324;28;20484;-52
2022/08/28 00:42:09;;;;;;;21.80;14.70;;;20.20;94.30;;;;;;5038330;28;21074;-52
2022/08/28 00:44:37;;;;;;;19.50;12.90;;;20.20;94.30;;;;;;5031570;28;20486;-52
2022/08/28 00:47:04;;;;;;;19.00;14.10;;;20.20;94.10;;;;;;5040252;28;21063;-52
2022/08/28 00:49:34;;;;;;;22.10;11.97;;;20.10;94.20;;;;;;5038106;28;20475;-52
2022/08/28 00:52:07;;;;;;;17.27;12.20;;;20.30;94.00;;;;;;5036721;28;20471;-52
2022/08/28 00:54:39;;;;;;;16.20;13.07;;;20.40;94.10;;;;;;5008230;28;20479;-52
2022/08/28 00:57:08;;;;;;;18.77;12.65;;;20.40;94.10;;;;;;5030133;28;20576;-52
2022/08/28 00:59:36;;;;;;;19.47;13.70;;;20.40;94.10;;;;;;5037014;28;20247;-55
2022/08/28 01:02:05;;;;;;;17.20;13.07;;;20.40;94.00;;;;;;5022804;28;20697;-51
2022/08/28 01:04:34;;;;;;;16.50;12.63;;;20.40;93.90;;;;;;5038058;28;20778;-52
2022/08/28 01:07:04;;;;;;;19.17;11.57;;;20.50;93.90;;;;;;5039508;28;20248;-52
2022/08/28 01:09:32;;;;;;;14.13;11.63;;;20.40;93.90;;;;;;5037103;28;20569;-52
2022/08/28 01:12:05;;;;;;;16.17;12.60;;;20.40;93.90;;;;;;5035395;28;20485;-52
2022/08/28 01:14:36;;;;;;;16.10;12.77;;;20.40;94.10;;;;;;5035806;28;20478;-52
2022/08/28 01:17:03;;;;;;;25.20;13.23;;;20.40;94.10;;;;;;5039140;28;20546;-52
2022/08/28 01:19:32;;;;;;;16.63;12.15;;;20.30;94.30;;;;;;5041256;28;20488;-53
2022/08/28 01:22:12;;;;;;;21.63;13.80;;;20.20;94.50;;;;;;5039157;28;20237;-52
2022/08/28 01:24:40;;;;;;;20.27;12.60;;;20.20;94.50;;;;;;5035140;28;20491;-53
2022/08/28 01:27:07;;;;;;;19.90;13.37;;;20.20;94.70;;;;;;5040306;28;20475;-53
2022/08/28 01:29:35;;;;;;;15.20;12.20;;;20.20;94.60;;;;;;5040128;28;20984;-52
2022/08/28 01:32:02;;;;;;;16.87;12.80;;;20.20;94.80;;;;;;5034820;28;21151;-52
2022/08/28 01:34:29;;;;;;;15.87;12.50;;;20.20;94.80;;;;;;5038117;28;21020;-52
2022/08/28 01:36:56;;;;;;;17.50;13.80;;;20.10;94.90;;;;;;5040726;28;21053;-52
2022/08/28 01:39:25;;;;;;;23.67;13.10;;;20.10;95.00;;;;;;5036002;28;20705;-52
2022/08/28 01:41:54;;;;;;;20.60;12.50;;;20.00;95.00;;;;;;5034249;28;20491;-52
2022/08/28 01:44:24;;;;;;;13.37;11.93;;;20.00;95.10;;;;;;5013546;28;20486;-52
2022/08/28 01:46:52;;;;;;;19.00;11.53;;;20.00;95.30;;;;;;5037289;28;20479;-52
2022/08/28 01:49:19;;;;;;;16.00;12.53;;;20.00;95.60;;;;;;5041559;28;20490;-52
2022/08/28 01:51:45;;;;;;;17.17;13.37;;;20.00;95.10;;;;;;5022576;28;21199;-52
2022/08/28 01:54:13;;;;;;;18.63;12.73;;;20.00;95.10;;;;;;5033465;28;20872;-52
2022/08/28 01:56:42;;;;;;;18.42;13.90;;;20.00;95.20;;;;;;5040176;28;20475;-52
2022/08/28 01:59:12;;;;;;;17.20;13.97;;;20.10;95.20;;;;;;5041847;28;20591;-52
2022/08/28 02:01:39;;;;;;;19.40;12.13;;;20.00;95.20;;;;;;5013122;28;20482;-52
2022/08/28 02:04:06;;;;;;;18.90;14.27;;;20.00;95.10;;;;;;5033410;28;21088;-52
2022/08/28 02:06:33;;;;;;;15.13;12.17;;;20.00;95.50;;;;;;5029927;28;20490;-52
2022/08/28 02:09:00;;;;;;;16.80;12.10;;;20.10;95.00;;;;;;5039327;28;20573;-52
2022/08/28 02:11:29;;;;;;;14.57;12.07;;;20.10;95.10;;;;;;5037893;28;20887;-52
2022/08/28 02:13:56;;;;;;;26.93;13.63;;;20.00;95.00;;;;;;5030368;28;20481;-52
2022/08/28 02:16:24;;;;;;;13.20;11.07;;;20.00;95.20;;;;;;5032336;28;20792;-52
2022/08/28 02:18:51;;;;;;;15.17;13.57;;;19.90;95.20;;;;;;5044153;28;20523;-52
2022/08/28 02:21:19;;;;;;;16.90;10.93;;;19.90;95.40;;;;;;5041487;28;21142;-52
2022/08/28 02:23:46;;;;;;;16.20;12.80;;;19.70;95.40;;;;;;5038456;28;20858;-51
2022/08/28 02:26:14;;;;;;;19.53;13.60;;;19.80;95.70;;;;;;5041967;28;20832;-52
2022/08/28 02:28:41;;;;;;;23.13;12.30;;;19.80;95.80;;;;;;5031715;28;20491;-51
2022/08/28 02:31:08;;;;;;;16.97;12.40;;;;;;;;;;5015821;28;20482;-52
2022/08/28 02:33:37;;;;;;;14.63;12.80;;;19.70;95.90;;;;;;5020730;28;20613;-51
2022/08/28 02:36:04;;;;;;;16.40;13.23;;;19.70;95.80;;;;;;5027196;28;20483;-51
2022/08/28 02:38:31;;;;;;;14.67;11.73;;;19.80;95.80;;;;;;5030821;28;20487;-52
2022/08/28 02:40:58;;;;;;;21.30;14.43;;;19.90;95.60;;;;;;5031287;28;20575;-51
2022/08/28 02:43:25;;;;;;;15.93;11.20;;;19.90;95.40;;;;;;5018941;28;20488;-51
2022/08/28 02:45:51;;;;;;;16.77;14.47;;;19.90;95.40;;;;;;5007652;28;21000;-51
2022/08/28 02:48:18;;;;;;;14.00;11.53;;;20.00;95.40;;;;;;5020059;28;20997;-52
2022/08/28 02:50:46;;;;;;;13.50;11.80;;;20.10;95.10;;;;;;5025791;28;20479;-51
2022/08/28 02:53:14;;;;;;;19.33;13.40;;;20.10;95.20;;;;;;5024616;28;20494;-51
2022/08/28 02:55:41;;;;;;;17.50;12.90;;;20.10;95.50;;;;;;5027704;28;20854;-51
2022/08/28 02:58:08;;;;;;;19.00;14.10;;;20.10;95.20;;;;;;5030532;28;21017;-53
2022/08/28 03:00:35;;;;;;;23.40;15.57;;;20.10;95.40;;;;;;5022693;28;20479;-53
2022/08/28 03:03:02;;;;;;;24.37;15.30;;;20.10;95.60;;;;;;5017901;28;21048;-52
2022/08/28 03:05:29;;;;;;;16.40;11.50;;;20.00;95.30;;;;;;5016441;28;20585;-52
2022/08/28 03:07:56;;;;;;;16.17;13.07;;;20.00;95.50;;;;;;5032197;28;20482;-52
2022/08/28 03:10:23;;;;;;;19.40;11.57;;;20.00;95.50;;;;;;5028688;28;20498;-52
2022/08/28 03:12:51;;;;;;;18.33;13.33;;;19.90;95.50;;;;;;5028826;28;20886;-53
2022/08/28 03:15:18;;;;;;;19.07;11.97;;;19.90;95.50;;;;;;5013718;28;20515;-53
2022/08/28 03:17:45;;;;;;;16.20;12.17;;;20.00;95.60;;;;;;5013960;28;20722;-52
2022/08/28 03:20:13;;;;;;;17.87;11.00;;;20.00;95.40;;;;;;5009532;28;21072;-52
2022/08/28 03:25:26;;;;;;;12.87;10.77;;;20.00;95.60;;;;;;5012004;28;20472;-52
2022/08/28 03:27:53;;;;;;;15.70;11.73;;;20.00;95.50;;;;;;5014945;28;20893;-53
2022/08/28 03:30:20;;;;;;;14.10;10.33;;;19.90;95.50;;;;;;5015262;28;20551;-53
2022/08/28 03:32:47;;;;;;;12.03;10.67;;;19.90;95.50;;;;;;5017795;28;20490;-54
2022/08/28 03:35:14;;;;;;;14.60;11.33;;;19.90;95.60;;;;;;5025072;28;20471;-52
2022/08/28 03:37:41;;;;;;;15.00;11.17;;;19.90;95.90;;;;;;5021267;28;20471;-52
2022/08/28 03:40:09;;;;;;;13.80;10.93;;;19.80;95.70;;;;;;5017061;28;20475;-52
2022/08/28 03:42:37;;;;;;;13.00;11.30;;;19.80;95.80;;;;;;5019945;28;20563;-53
2022/08/28 03:45:05;;;;;;;13.10;11.43;;;19.80;95.90;;;;;;5027752;28;20480;-52
2022/08/28 03:47:32;;;;;;;12.60;10.43;;;19.80;95.90;;;;;;5015923;28;20575;-52
2022/08/28 03:49:58;;;;;;;16.80;12.10;;;19.80;95.90;;;;;;5010253;28;20480;-52
2022/08/28 03:52:25;;;;;;;15.20;11.03;;;19.80;96.10;;;;;;5025027;28;21136;-53
2022/08/28 03:54:52;;;;;;;14.20;9.93;;;19.80;95.60;;;;;;5022130;28;20977;-52
2022/08/28 03:57:20;;;;;;;14.47;10.20;;;19.80;95.60;;;;;;5029236;28;20490;-52
2022/08/28 03:59:49;;;;;;;20.20;11.10;;;19.90;95.50;;;;;;5014718;28;21080;-52
2022/08/28 04:02:18;;;;;;;11.57;9.40;;;19.90;95.70;;;;;;5021115;28;20489;-51
2022/08/28 04:04:45;;;;;;;14.53;12.17;;;20.00;95.40;;;;;;4986849;28;20595;-52
2022/08/28 04:07:12;;;;;;;14.00;11.20;;;20.00;95.20;;;;;;5011283;28;21741;-52
2022/08/28 04:09:39;;;;;;;9.80;8.77;;;20.00;95.00;;;;;;5029864;28;20962;-52
2022/08/28 04:12:07;;;;;;;13.83;10.50;;;20.10;95.20;;;;;;5013430;28;21132;-52
2022/08/28 04:14:34;;;;;;;17.97;11.60;;;20.00;95.00;;;;;;5023353;28;20487;-53
2022/08/28 04:17:02;;;;;;;12.60;9.90;;;20.00;95.00;;;;;;5023491;28;20483;-52
2022/08/28 04:19:29;;;;;;;9.23;8.30;;;19.90;95.10;;;;;;5030130;28;20491;-52
2022/08/28 04:21:56;;;;;;;12.43;11.00;;;19.90;95.30;;;;;;5017112;28;20560;-53
2022/08/28 04:24:23;;;;;;;13.77;9.43;;;19.80;95.30;;;;;;5006037;28;21274;-52
2022/08/28 04:26:50;;;;;;;12.47;11.17;;;19.70;95.60;;;;;;5027219;28;20478;-52
2022/08/28 04:29:17;;;;;;;11.93;9.23;;;19.70;96.00;;;;;;5016475;28;20994;-52
2022/08/28 04:31:44;;;;;;;17.27;10.80;;;19.80;95.90;;;;;;5028480;28;20482;-52
2022/08/28 04:34:12;;;;;;;17.20;10.87;;;19.70;96.10;;;;;;5023810;28;20505;-52
2022/08/28 04:36:40;;;;;;;14.30;11.20;;;19.60;96.30;;;;;;5022826;28;20998;-52
2022/08/28 04:39:07;;;;;;;12.40;10.37;;;19.60;96.10;;;;;;5005109;28;21140;-52
2022/08/28 04:41:35;;;;;;;10.57;9.57;;;19.60;96.00;;;;;;5013352;28;20475;-52
2022/08/28 04:44:02;;;;;;;12.13;10.87;;;19.60;96.10;;;;;;5013569;28;20492;-52
2022/08/28 04:46:29;;;;;;;10.93;9.20;;;19.60;95.80;;;;;;5018447;28;20480;-52
2022/08/28 04:48:56;;;;;;;11.20;10.07;;;19.60;96.10;;;;;;5015204;28;20479;-52
2022/08/28 04:51:25;;;;;;;11.60;9.17;;;19.60;95.80;;;;;;5030617;28;21018;-53
2022/08/28 04:53:52;;;;;;;15.07;10.83;;;19.70;95.70;;;;;;5012521;28;20594;-52
2022/08/28 04:56:18;;;;;;;12.70;8.73;;;19.60;95.90;;;;;;5014641;28;21028;-52
2022/08/28 04:58:47;;;;;;;18.03;9.33;;;19.70;95.40;;;;;;5027179;28;20507;-52
2022/08/28 05:01:17;;;;;;;12.90;9.60;;;19.80;95.50;;;;;;5029132;28;20483;-52
2022/08/28 05:03:44;;;;;;;10.03;7.67;;;19.80;95.40;;;;;;5027355;28;20492;-52
2022/08/28 05:06:13;;;;;;;16.70;8.23;;;19.80;95.40;;;;;;5022560;28;20528;-52
2022/08/28 05:08:42;;;;;;;9.83;8.40;;;19.80;95.40;;;;;;5030398;28;20653;-53
2022/08/28 05:11:11;;;;;;;12.37;9.43;;;19.90;95.40;;;;;;5021356;28;20490;-52
2022/08/28 05:13:38;;;;;;;10.80;8.43;;;19.90;95.30;;;;;;5022910;28;20485;-52
2022/08/28 05:16:05;;;;;;;17.67;8.77;;;19.90;95.20;;;;;;5021412;28;20913;-52
2022/08/28 05:18:32;;;;;;;12.43;9.00;;;19.90;95.20;;;;;;5027336;28;20487;-52
2022/08/28 05:21:00;;;;;;;10.27;7.43;;;20.00;95.10;;;;;;5024617;28;20747;-52
2022/08/28 05:23:27;;;;;;;8.50;7.30;;;20.10;95.00;;;;;;5025759;28;20484;-52
2022/08/28 05:25:56;;;;;;;18.10;11.37;;;20.10;95.00;;;;;;5012025;28;20831;-52
2022/08/28 05:28:24;;;;;;;16.87;7.80;;;20.10;94.90;;;;;;5016362;28;20495;-52
2022/08/28 05:30:51;;;;;;;14.00;10.30;;;20.00;95.10;;;;;;5025570;28;20495;-52
2022/08/28 05:33:18;;;;;;;15.97;9.63;;;20.00;95.20;;;;;;5019880;28;21351;-52
2022/08/28 05:35:47;;;;;;;9.80;8.00;;;19.90;95.30;;;;;;5013322;28;21015;-52
2022/08/28 05:38:15;;;;;;;12.00;9.50;;;19.90;95.30;;;;;;5021897;28;21091;-52
2022/08/28 05:40:43;;;;;;;10.53;9.10;;;20.10;95.40;;;;;;5028732;28;20499;-52
2022/08/28 05:43:13;;;;;;;10.60;9.20;;;19.90;95.40;;;;;;5027332;28;20578;-52
2022/08/28 05:45:40;;;;;;;11.97;9.20;;;20.00;95.70;;;;;;5024028;28;21269;-52
2022/08/28 05:48:07;;;;;;;10.40;8.37;;;20.00;95.30;;;;;;5026117;28;20490;-52
2022/08/28 05:50:36;;;;;;;13.13;9.30;;;20.10;95.30;;;;;;5020347;28;20492;-52
2022/08/28 05:53:03;;;;;;;11.47;10.20;;;20.10;95.30;;;;;;5018563;28;20978;-52
2022/08/28 05:55:30;;;;;;;16.13;8.53;;;20.10;95.20;;;;;;5021792;28;20483;-53
2022/08/28 05:58:27;;;;;;;14.37;8.93;;;20.10;95.20;;;;;;5032201;28;20843;-52
2022/08/28 06:00:46;;;;;;;10.97;8.00;;;20.20;95.10;;;;;;5011081;28;20736;-52
2022/08/28 06:03:13;;;;;;;10.87;9.17;;;20.30;95.20;;;;;;5026810;28;20479;-52
2022/08/28 06:05:39;;;;;;;9.13;7.40;;;20.30;95.20;;;;;;5017078;28;21021;-52
2022/08/28 06:08:07;;;;;;;10.10;8.10;;;20.30;95.30;;;;;;5020894;28;20483;-52
2022/08/28 06:10:35;;;;;;;10.63;8.63;;;20.50;95.00;;;;;;5025494;28;20931;-52
2022/08/28 06:13:03;;;;;;;11.93;8.30;;;20.60;94.90;;;;;;5013693;28;20567;-52
2022/08/28 06:15:29;;;;;;;10.50;7.80;;;20.70;94.90;;;;;;5029587;28;20482;-52
2022/08/28 06:17:57;;;;;;;8.57;7.65;;;20.70;94.60;;;;;;5019588;28;20482;-51
2022/08/28 06:20:24;;;;;;;8.37;6.00;;;20.80;94.90;;;;;;5032659;28;20237;-52
2022/08/28 06:22:51;;;;;;;9.53;7.30;;;20.90;94.40;;;;;;5023825;28;20839;-52
2022/08/28 06:25:17;;;;;;;7.83;6.60;;;21.00;93.90;;;;;;5029529;28;20492;-52
2022/08/28 06:27:44;;;;;;;9.43;7.43;;;20.90;93.80;;;;;;5032582;28;20941;-52
2022/08/28 06:30:11;;;;;;;8.90;6.90;;;21.00;93.80;;;;;;5027130;28;20845;-52
2022/08/28 06:32:38;;;;;;;8.27;7.10;;;21.00;94.10;;;;;;5026398;28;20530;-52
2022/08/28 06:35:07;;;;;;;8.40;7.47;;;21.10;93.60;;;;;;5013751;28;20495;-52
2022/08/28 06:37:33;;;;;;;7.87;5.97;;;21.30;93.60;;;;;;5012633;28;20740;-52
2022/08/28 06:40:00;;;;;;;8.87;7.97;;;21.60;93.60;;;;;;5022117;28;20487;-52
2022/08/28 06:42:27;;;;;;;7.93;6.60;;;21.70;93.30;;;;;;5025751;28;20480;-51
2022/08/28 06:44:53;;;;;;;13.13;8.10;;;21.90;92.70;;;;;;5026883;28;20474;-52
2022/08/28 06:47:20;;;;;;;13.97;7.33;;;22.10;92.40;;;;;;5017075;28;20487;-52
2022/08/28 06:49:47;;;;;;;8.90;6.63;;;22.30;92.50;;;;;;5013273;28;20484;-52
2022/08/28 06:52:15;;;;;;;8.43;6.33;;;22.30;91.90;;;;;;5022983;28;20761;-51
2022/08/28 06:54:41;;;;;;;10.13;6.40;;;22.30;91.90;;;;;;5020193;28;21060;-52
2022/08/28 06:57:08;;;;;;;8.70;7.00;;;22.30;91.60;;;;;;5022778;28;20821;-51
2022/08/28 06:59:34;;;;;;;9.90;5.83;;;22.40;91.80;;;;;;5031112;28;20491;-52
2022/08/28 07:02:01;;;;;;;7.70;6.70;;;22.30;91.40;;;;;;5012948;28;20866;-52
2022/08/28 07:04:28;;;;;;;6.70;5.80;;;22.30;91.70;;;;;;5026006;28;20486;-51
2022/08/28 07:06:55;;;;;;;12.53;6.33;;;22.30;91.40;;;;;;5024100;28;20469;-51
2022/08/28 07:09:23;;;;;;;9.80;6.37;;;22.30;91.10;;;;;;5021256;28;20808;-51
2022/08/28 07:11:50;;;;;;;6.73;5.97;;;22.30;91.10;;;;;;5023293;28;20568;-50
2022/08/28 07:14:17;;;;;;;6.57;5.80;;;22.30;91.30;;;;;;5025817;28;20510;-52
2022/08/28 07:16:44;;;;;;;8.50;5.60;;;22.50;91.10;;;;;;5027776;28;20475;-52
2022/08/28 07:19:12;;;;;;;5.80;5.30;;;22.70;90.80;;;;;;5024619;28;20554;-49
2022/08/28 07:21:41;;;;;;;9.90;5.50;;;22.90;90.40;;;;;;5024300;28;20481;-51
2022/08/28 07:24:09;;;;;;;7.43;5.50;;;23.10;90.00;;;;;;5004163;28;20480;-50
2022/08/28 07:26:39;;;;;;;7.27;5.40;;;23.40;90.10;;;;;;5017010;28;20586;-53
2022/08/28 07:29:07;;;;;;;6.63;4.63;;;23.70;89.20;;;;;;5022932;28;20481;-52
2022/08/28 07:31:34;;;;;;;6.20;5.37;;;23.80;88.00;;;;;;5031364;28;20518;-53
2022/08/28 07:34:00;;;;;;;4.93;4.53;;;23.90;88.10;;;;;;5026291;28;20840;-52
2022/08/28 07:36:28;;;;;;;6.53;4.70;;;23.90;86.80;;;;;;5028952;28;20480;-53
2022/08/28 07:38:56;;;;;;;11.43;6.20;;;24.00;88.20;;;;;;5018170;28;20488;-51
2022/08/28 07:41:24;;;;;;;5.37;4.87;;;24.10;87.40;;;;;;5022979;28;20561;-51
2022/08/28 07:46:37;;;;;;;5.90;5.30;;;24.40;86.50;;;;;;5013776;28;20534;-52
2022/08/28 07:49:04;;;;;;;9.00;5.70;;;24.40;84.10;;;;;;5014961;28;21067;-52
2022/08/28 07:51:31;;;;;;;8.77;4.77;;;24.50;84.80;;;;;;5016004;28;20469;-51
2022/08/28 07:53:58;;;;;;;8.03;5.67;;;24.50;84.30;;;;;;5008630;28;20485;-50
2022/08/28 07:56:26;;;;;;;7.40;4.60;;;24.40;84.50;;;;;;5019965;28;20497;-51
2022/08/28 07:58:55;;;;;;;6.47;5.87;;;24.40;84.40;;;;;;5024802;28;20776;-52
2022/08/28 08:01:22;;;;;;;6.80;4.63;;;24.40;84.00;;;;;;5027141;28;20676;-52
2022/08/28 08:03:49;;;;;;;7.60;5.13;;;24.40;84.20;;;;;;5018294;28;20489;-51
2022/08/28 08:06:16;;;;;;;5.37;4.87;;;24.40;84.70;;;;;;5023104;28;20495;-52
2022/08/28 08:08:44;;;;;;;7.90;6.10;;;24.50;86.10;;;;;;5020063;28;20485;-51
2022/08/28 08:11:12;;;;;;;5.20;4.27;;;;;;;;;;5020536;28;20493;-51
2022/08/28 08:13:39;;;;;;;5.63;5.00;;;24.90;83.90;;;;;;5025154;28;20475;-52
2022/08/28 08:16:10;;;;;;;5.20;4.70;;;25.20;83.30;;;;;;5021233;28;20493;-52
2022/08/28 08:18:37;;;;;;;8.57;4.40;;;25.40;82.90;;;;;;5028826;28;21002;-49
2022/08/28 08:21:05;;;;;;;6.60;5.97;;;25.40;83.40;;;;;;5016712;28;20487;-49
2022/08/28 08:23:34;;;;;;;8.10;5.73;;;25.50;81.00;;;;;;5008579;28;21002;-51
2022/08/28 08:26:03;;;;;;;6.50;5.33;;;25.20;80.70;;;;;;5023586;28;20567;-50
2022/08/28 08:28:31;;;;;;;6.70;5.70;;;25.10;81.30;;;;;;5017356;28;20492;-51
2022/08/28 08:31:06;;;;;;;6.30;5.80;;;25.00;81.20;;;;;;5011077;28;20876;-51
2022/08/28 08:33:36;;;;;;;4.87;4.47;;;25.00;81.80;;;;;;5018934;28;20475;-52
2022/08/28 08:36:04;;;;;;;5.93;4.80;;;25.00;82.20;;;;;;5025263;28;20487;-52
2022/08/28 08:38:31;;;;;;;6.03;4.13;;;25.30;81.90;;;;;;5022646;28;20995;-52
2022/08/28 08:41:00;;;;;;;6.07;5.00;;;25.40;81.30;;;;;;5019700;28;20488;-52
2022/08/28 08:43:30;;;;;;;4.70;4.30;;;25.60;81.40;;;;;;5014997;28;20499;-51
2022/08/28 08:45:57;;;;;;;6.53;4.90;;;;;;;;;;5025700;28;20472;-50
2022/08/28 08:48:29;;;;;;;7.13;5.27;;;25.70;79.80;;;;;;5019916;28;20496;-52
2022/08/28 08:51:03;;;;;;;10.90;5.73;;;25.60;79.40;;;;;;5026113;28;20492;-51
2022/08/28 08:53:37;;;;;;;8.80;5.57;;;25.50;79.90;;;;;;5015145;28;20487;-52
2022/08/28 08:56:05;;;;;;;5.53;5.03;;;25.40;79.90;;;;;;5030463;28;20982;-50
2022/08/28 08:58:36;;;;;;;6.77;4.87;;;25.40;80.30;;;;;;5016523;28;20985;-51
2022/08/28 09:01:13;;;;;;;7.63;6.07;;;25.30;80.30;;;;;;5017188;28;20481;-52
2022/08/28 09:03:53;;;;;;;11.10;5.13;;;25.30;81.00;;;;;;5027705;28;20784;-51
2022/08/28 09:06:35;;;;;;;8.90;5.13;;;25.30;81.00;;;;;;5004526;28;20683;-51
2022/08/28 09:09:07;;;;;;;5.83;5.23;;;25.40;81.10;;;;;;5028176;28;20481;-50
2022/08/28 09:11:45;;;;;;;5.73;5.27;;;25.50;80.60;;;;;;5027858;28;20491;-51
2022/08/28 09:14:20;;;;;;;12.40;5.00;;;25.50;79.30;;;;;;4999836;28;20468;-51
2022/08/28 09:16:47;;;;;;;7.73;5.40;;;25.50;79.70;;;;;;5021825;28;20562;-51
2022/08/28 09:19:18;;;;;;;6.30;4.80;;;25.40;79.80;;;;;;5029590;28;20479;-50
2022/08/28 09:21:48;;;;;;;5.00;4.60;;;25.40;79.50;;;;;;5027481;28;20475;-52
2022/08/28 09:24:21;;;;;;;6.33;5.20;;;25.40;79.20;;;;;;5017790;28;20801;-50
2022/08/28 09:26:54;;;;;;;6.40;5.00;;;25.40;79.30;;;;;;5019734;28;20476;-51
2022/08/28 09:29:27;;;;;;;7.53;4.50;;;25.40;78.90;;;;;;5026839;28;20779;-52
2022/08/28 09:31:54;;;;;;;9.90;5.43;;;25.40;79.40;;;;;;5019809;28;20491;-51
2022/08/28 09:34:25;;;;;;;9.00;5.80;;;25.50;79.30;;;;;;5021662;28;20939;-51
2022/08/28 09:36:54;;;;;;;6.20;5.63;;;25.50;80.40;;;;;;5021067;28;20481;-50
2022/08/28 09:39:22;;;;;;;6.80;4.40;;;25.70;78.70;;;;;;5025807;28;20487;-52
2022/08/28 09:44:56;;;;;;;8.17;6.60;;;25.90;78.10;;;;;;4951789;28;20930;-48
2022/08/28 09:47:47;;;;;;;8.33;4.83;;;25.90;77.30;;;;;;5005531;28;20501;-51
2022/08/28 09:50:17;;;;;;;7.97;5.33;;;25.90;77.30;;;;;;4985858;28;20471;-49
2022/08/28 09:52:46;;;;;;;5.37;4.87;;;25.90;77.80;;;;;;5026997;28;20446;-48
2022/08/28 09:55:19;;;;;;;7.10;5.00;;;26.00;77.70;;;;;;5029595;28;20483;-51
2022/08/28 09:57:47;;;;;;;7.93;5.50;;;26.00;78.00;;;;;;5000958;28;20996;-51
2022/08/28 10:00:14;;;;;;;5.60;4.80;;;26.20;77.50;;;;;;5029231;28;20823;-49
2022/08/28 10:02:46;;;;;;;5.70;5.10;;;26.40;76.90;;;;;;5027489;28;20996;-50
2022/08/28 10:05:18;;;;;;;5.40;4.57;;;26.40;76.80;;;;;;5009719;28;21072;-50
2022/08/28 10:07:52;;;;;;;5.50;4.57;;;26.40;76.70;;;;;;5014302;28;20483;-51
2022/08/28 10:10:27;;;;;;;5.77;4.97;;;26.50;76.20;;;;;;5002199;28;20710;-51
2022/08/28 10:13:04;;;;;;;12.43;5.10;;;25.50;75.10;;;;;;5025986;28;20449;-50
2022/08/28 10:15:45;;;;;;;8.23;4.77;;;26.50;75.50;;;;;;5026238;28;20969;-51
2022/08/28 10:18:31;;;;;;;4.30;3.90;;;26.50;75.50;;;;;;5021234;28;20480;-51
2022/08/28 10:21:07;;;;;;;5.00;4.50;;;26.30;75.60;;;;;;5021643;28;20472;-51
2022/08/28 10:23:46;;;;;;;5.90;4.87;;;26.50;76.00;;;;;;5025371;28;20852;-50
2022/08/28 10:26:20;;;;;;;6.43;4.70;;;;;;;;;;5023049;28;20487;-52
2022/08/28 10:28:57;;;;;;;11.20;4.97;;;26.50;75.60;;;;;;5020400;28;20476;-48
2022/08/28 10:31:32;;;;;;;11.23;5.13;;;26.50;75.60;;;;;;5013691;28;20483;-50
2022/08/28 10:34:11;;;;;;;6.20;4.50;;;26.60;76.50;;;;;;5027131;28;20582;-49
2022/08/28 10:36:38;;;;;;;7.00;4.97;;;26.80;75.60;;;;;;5027363;28;20537;-48
2022/08/28 10:39:17;;;;;;;4.87;4.47;;;26.90;76.20;;;;;;5025340;28;20885;-50
2022/08/28 10:41:47;;;;;;;5.50;4.37;;;27.10;76.20;;;;;;5021373;28;21335;-49
2022/08/28 10:44:21;;;;;;;8.23;4.43;;;27.50;74.40;;;;;;5018860;28;21007;-49
2022/08/28 10:46:52;;;;;;;5.43;4.40;;;27.70;73.80;;;;;;5029255;28;20483;-50
2022/08/28 10:49:25;;;;;;;7.30;4.90;;;27.80;73.80;;;;;;5030072;28;20468;-50
2022/08/28 10:51:55;;;;;;;4.80;4.17;;;28.20;72.20;;;;;;5016372;28;20503;-50
2022/08/28 10:54:30;;;;;;;9.27;4.93;;;28.10;71.70;;;;;;5029338;28;20479;-50
2022/08/28 10:57:05;;;;;;;7.30;4.27;;;28.50;71.50;;;;;;5024648;28;20489;-49
2022/08/28 10:59:34;;;;;;;9.57;4.73;;;28.60;71.10;;;;;;5029357;28;20479;-52
2022/08/28 11:02:01;;;;;;;5.60;4.00;;;28.80;71.20;;;;;;5027617;28;20468;-48
2022/08/28 11:04:28;;;;;;;4.07;3.67;;;29.00;70.50;;;;;;5020794;28;20527;-49
2022/08/28 11:06:58;;;;;;;4.90;4.30;;;29.00;71.50;;;;;;5009139;28;20488;-50
2022/08/28 11:09:32;;;;;;;4.50;4.10;;;29.00;70.90;;;;;;5027209;28;20476;-51
2022/08/28 11:12:00;;;;;;;5.37;4.20;;;29.30;70.80;;;;;;5028659;28;20455;-50
2022/08/28 11:14:31;;;;;;;8.97;3.77;;;29.30;69.00;;;;;;5025876;28;20473;-47
2022/08/28 11:17:01;;;;;;;8.13;4.20;;;29.50;69.70;;;;;;5021931;28;20699;-51
2022/08/28 11:20:07;;;;;;;9.27;4.20;;;29.60;69.30;;;;;;5026949;28;20482;-50
2022/08/28 11:22:38;;;;;;;12.47;5.10;;;29.70;68.00;;;;;;4946211;28;20631;-51
2022/08/28 11:25:16;;;;;;;5.80;3.97;;;29.60;67.90;;;;;;5019712;28;20981;-50
2022/08/28 11:28:16;;;;;;;5.43;4.93;;;29.80;68.00;;;;;;5030231;28;20450;-50
2022/08/28 11:30:44;;;;;;;4.70;4.20;;;29.90;67.70;;;;;;5011504;28;20495;-49
2022/08/28 11:33:41;;;;;;;6.10;4.27;;;29.80;67.20;;;;;;5020542;28;20459;-50
2022/08/28 11:36:10;;;;;;;5.03;4.07;;;30.10;67.90;;;;;;5018495;28;21059;-50
2022/08/28 11:39:21;;;;;;;4.23;3.83;;;30.20;66.90;;;;;;5020561;28;20471;-51
2022/08/28 11:42:30;;;;;;;7.20;4.53;;;29.90;65.80;;;;;;5011100;28;20487;-50
2022/08/28 11:44:59;;;;;;;4.70;4.30;;;29.90;67.30;;;;;;5026318;28;20665;-51
2022/08/28 11:47:44;;;;;;;7.47;4.70;;;30.20;67.80;;;;;;5017018;28;20442;-50
2022/08/28 11:50:17;;;;;;;4.50;4.00;;;30.20;67.70;;;;;;5020857;28;20498;-50
2022/08/28 11:53:16;;;;;;;5.10;4.30;;;30.50;65.60;;;;;;5027615;28;20483;-50
2022/08/28 11:56:04;;;;;;;5.73;4.40;;;30.20;64.60;;;;;;5027478;28;21100;-50
2022/08/28 11:58:38;;;;;;;5.33;4.53;;;30.10;65.90;;;;;;5010404;28;20459;-51
2022/08/28 12:01:08;;;;;;;5.40;4.47;;;30.00;66.00;;;;;;5017606;28;20458;-51
2022/08/28 12:03:37;;;;;;;5.13;3.80;;;29.90;64.90;;;;;;5020874;28;20658;-51
2022/08/28 12:06:05;;;;;;;7.07;5.30;;;29.90;67.10;;;;;;5007329;28;20592;-50
2022/08/28 12:09:11;;;;;;;5.03;4.20;;;30.10;66.40;;;;;;5013828;28;20675;-50
2022/08/28 12:11:50;;;;;;;5.23;4.83;;;30.20;66.00;;;;;;5013512;28;20495;-51
2022/08/28 12:14:47;;;;;;;6.10;4.67;;;30.40;64.90;;;;;;5013574;28;20455;-50
2022/08/28 12:17:27;;;;;;;7.40;5.23;;;30.30;65.10;;;;;;5014569;28;20453;-51
2022/08/28 12:20:04;;;;;;;5.83;5.23;;;30.30;65.10;;;;;;5029900;28;20458;-51
2022/08/28 12:22:45;;;;;;;12.60;5.57;;;30.50;65.30;;;;;;5023079;28;20482;-52
2022/08/28 12:25:24;;;;;;;4.90;4.33;;;30.60;65.50;;;;;;5032116;28;20470;-51
2022/08/28 12:27:52;;;;;;;4.93;3.77;;;30.60;65.40;;;;;;5031340;28;20527;-51
2022/08/28 12:30:29;;;;;;;6.47;4.67;;;30.60;64.10;;;;;;5021799;28;20566;-52
2022/08/28 12:33:07;;;;;;;5.53;4.83;;;30.50;65.00;;;;;;5025298;28;20471;-52
2022/08/28 12:35:33;;;;;;;6.57;5.00;;;29.90;64.40;;;;;;5020656;28;21052;-51
2022/08/28 12:38:02;;;;;;;4.47;4.00;;;29.80;65.50;;;;;;5029397;28;20951;-51
2022/08/28 12:40:34;;;;;;;5.73;4.50;;;29.90;66.90;;;;;;5021328;28;20454;-51
2022/08/28 12:43:03;;;;;;;6.30;4.03;;;30.00;66.90;;;;;;5002516;28;21102;-52
2022/08/28 12:45:39;;;;;;;4.83;4.13;;;30.00;65.50;;;;;;5018404;28;20513;-51
2022/08/28 12:48:16;;;;;;;5.20;4.67;;;30.20;66.20;;;;;;5027745;28;20442;-51
2022/08/28 12:50:43;;;;;;;8.13;4.33;;;30.30;65.50;;;;;;5034596;28;20502;-52
2022/08/28 12:53:15;;;;;;;5.70;4.20;;;30.70;65.10;;;;;;5026077;28;20451;-51
2022/08/28 12:55:42;;;;;;;4.23;3.83;;;30.70;63.90;;;;;;5025562;28;20761;-50
2022/08/28 12:58:14;;;;;;;4.60;4.10;;;30.50;64.00;;;;;;5020556;28;20886;-52
2022/08/28 13:00:51;;;;;;;6.73;3.90;;;30.50;64.30;;;;;;5015404;28;20454;-52
2022/08/28 13:03:19;;;;;;;5.83;4.40;;;30.20;64.10;;;;;;5031082;28;20495;-50
2022/08/28 13:05:46;;;;;;;7.83;4.40;;;30.00;63.40;;;;;;5020147;28;20466;-52